Time;durP1;ratioP1;P1;durP2;ratioP2;P2;SDS_P1;SDS_P2;PMS_P1;PMS_P2;Temp;Humidity;BMP_temperature;BMP_pressure;BME280_temperature;BME280_humidity;BME280_pressure;Samples;Min_cycle;Max_cycle;Signal;HPM_P1;HPM_P2
2023/01/02 00:00:10;;;;;;;3.00;1.80;;;13.70;99.90;;;;;;5017514;28;20194;-78
2023/01/02 00:02:35;;;;;;;4.67;1.90;;;13.70;99.90;;;;;;5034561;28;20681;-78
2023/01/02 00:05:01;;;;;;;5.93;2.10;;;13.80;99.90;;;;;;5035060;28;20181;-78
2023/01/02 00:07:26;;;;;;;4.57;2.10;;;13.80;99.90;;;;;;5034983;28;20657;-78
2023/01/02 00:09:52;;;;;;;3.57;1.73;;;13.70;99.90;;;;;;5017467;28;20201;-78
2023/01/02 00:12:17;;;;;;;3.27;1.90;;;13.70;99.90;;;;;;5016874;28;20182;-77
2023/01/02 00:14:43;;;;;;;4.63;1.83;;;13.70;99.90;;;;;;5034952;28;20193;-78
2023/01/02 00:17:08;;;;;;;4.50;2.10;;;13.70;99.90;;;;;;5017243;28;20186;-78
2023/01/02 00:19:34;;;;;;;3.87;1.90;;;13.70;99.90;;;;;;5072830;22;20216;-79
2023/01/02 00:22:00;;;;;;;3.83;2.03;;;13.70;99.90;;;;;;4997741;28;20211;-80
2023/01/02 00:24:25;;;;;;;3.63;1.97;;;13.60;99.90;;;;;;4997345;28;20171;-80
2023/01/02 00:26:51;;;;;;;4.57;2.10;;;13.50;99.90;;;;;;5014415;28;20634;-80
2023/01/02 00:29:16;;;;;;;4.73;1.90;;;13.50;99.90;;;;;;5015062;28;20175;-80
2023/01/02 00:31:42;;;;;;;4.70;1.97;;;13.40;99.90;;;;;;4978981;28;20172;-80
2023/01/02 00:34:07;;;;;;;5.53;1.90;;;13.40;99.90;;;;;;4978280;28;20179;-80
2023/01/02 00:36:33;;;;;;;6.03;2.07;;;13.30;99.90;;;;;;4996437;28;20259;-80
2023/01/02 00:38:58;;;;;;;4.63;1.87;;;13.30;99.90;;;;;;4978921;28;20191;-80
2023/01/02 00:41:24;;;;;;;3.77;2.03;;;13.30;99.90;;;;;;4978472;28;20195;-80
2023/01/02 00:43:50;;;;;;;5.10;2.17;;;13.30;99.90;;;;;;4977986;28;20298;-81
2023/01/02 00:46:17;;;;;;;5.33;2.10;;;13.40;99.90;;;;;;4996194;28;20176;-80
2023/01/02 00:48:43;;;;;;;4.30;2.13;;;13.50;99.90;;;;;;4996043;28;20171;-80
2023/01/02 00:51:08;;;;;;;3.27;2.23;;;13.40;99.90;;;;;;4978789;28;20286;-80
2023/01/02 00:53:34;;;;;;;3.80;2.20;;;13.30;99.90;;;;;;4978279;28;20176;-81
2023/01/02 00:56:00;;;;;;;4.03;2.00;;;13.30;99.90;;;;;;4978923;28;20283;-79
2023/01/02 00:58:25;;;;;;;5.30;2.10;;;13.30;99.90;;;;;;4978306;28;20176;-80
2023/01/02 01:00:51;;;;;;;3.07;2.00;;;13.30;99.90;;;;;;4978204;28;20223;-79
2023/01/02 01:03:17;;;;;;;3.80;2.07;;;13.20;99.90;;;;;;4978013;28;20210;-81
2023/01/02 01:05:42;;;;;;;4.00;1.83;;;13.30;99.90;;;;;;4994980;28;20291;-80
2023/01/02 01:08:08;;;;;;;6.80;2.70;;;13.30;99.90;;;;;;4978277;28;20180;-80
2023/01/02 01:10:36;;;;;;;3.77;2.03;;;13.30;99.90;;;;;;4995930;28;20283;-80
2023/01/02 01:13:01;;;;;;;2.33;2.00;;;13.30;99.90;;;;;;4995153;28;20200;-79
2023/01/02 01:15:27;;;;;;;4.63;2.20;;;13.30;99.90;;;;;;4978148;28;20234;-80
2023/01/02 01:17:52;;;;;;;4.57;2.00;;;13.20;99.90;;;;;;4978466;28;20234;-80
2023/01/02 01:20:18;;;;;;;3.87;2.03;;;13.20;99.90;;;;;;4995390;28;20307;-80
2023/01/02 01:22:44;;;;;;;5.07;2.00;;;13.30;99.90;;;;;;4995025;28;20207;-80
2023/01/02 01:25:10;;;;;;;3.43;2.30;;;13.30;99.90;;;;;;4995600;28;20233;-80
2023/01/02 01:27:35;;;;;;;4.10;2.10;;;13.40;99.90;;;;;;4995625;28;20172;-80
2023/01/02 01:30:02;;;;;;;3.60;2.10;;;13.40;99.90;;;;;;4977833;28;20692;-79
2023/01/02 01:32:28;;;;;;;6.23;2.10;;;13.40;99.90;;;;;;4995035;28;20191;-80
2023/01/02 01:34:54;;;;;;;4.00;2.00;;;13.30;99.90;;;;;;4995969;28;20257;-81
2023/01/02 01:37:19;;;;;;;3.70;2.10;;;13.30;99.90;;;;;;4978009;28;20626;-80
2023/01/02 01:39:45;;;;;;;4.20;2.03;;;13.40;99.90;;;;;;4978163;28;20241;-80
2023/01/02 01:42:14;;;;;;;3.60;2.00;;;13.40;99.90;;;;;;4995055;28;20207;-80
2023/01/02 01:44:47;;;;;;;4.93;2.07;;;13.40;99.90;;;;;;4978182;28;20184;-80
2023/01/02 01:47:58;;;;;;;5.93;2.40;;;13.50;99.90;;;;;;4978092;28;20190;-80
2023/01/02 01:50:28;;;;;;;3.60;1.80;;;13.40;99.90;;;;;;4991152;28;20207;-80
2023/01/02 01:53:00;;;;;;;5.90;2.10;;;13.40;99.90;;;;;;4977398;28;20187;-80
2023/01/02 01:55:32;;;;;;;3.60;2.10;;;13.30;99.90;;;;;;4978368;28;20511;-80
2023/01/02 01:58:01;;;;;;;4.00;2.03;;;13.40;99.90;;;;;;4977410;28;20179;-80
2023/01/02 02:00:27;;;;;;;3.03;1.87;;;13.30;99.90;;;;;;4994664;28;20254;-80
2023/01/02 02:03:00;;;;;;;4.37;2.03;;;13.30;99.90;;;;;;4976752;28;20207;-80
2023/01/02 02:05:28;;;;;;;5.07;2.10;;;13.20;99.90;;;;;;4994580;28;20611;-80
2023/01/02 02:08:14;;;;;;;3.10;1.90;;;13.20;99.90;;;;;;4976922;28;20178;-79
2023/01/02 02:10:40;;;;;;;5.23;2.00;;;13.20;99.90;;;;;;4994140;28;20666;-80
2023/01/02 02:13:06;;;;;;;4.07;2.03;;;13.30;99.90;;;;;;4976480;28;20182;-80
2023/01/02 02:16:06;;;;;;;5.40;2.03;;;13.30;99.90;;;;;;4976478;28;20179;-81
2023/01/02 02:18:51;;;;;;;4.17;2.20;;;13.20;99.90;;;;;;4968997;28;20195;-80
2023/01/02 02:21:52;;;;;;;4.93;2.10;;;13.20;99.90;;;;;;4993977;28;20219;-78
2023/01/02 02:24:36;;;;;;;5.27;1.93;;;13.20;99.90;;;;;;4976232;28;20183;-80
2023/01/02 02:27:14;;;;;;;3.67;1.70;;;13.10;99.90;;;;;;4976485;28;20175;-80
2023/01/02 02:29:51;;;;;;;3.57;1.80;;;13.10;99.90;;;;;;4994081;28;20215;-79
2023/01/02 02:32:36;;;;;;;4.43;2.03;;;13.10;99.90;;;;;;4976333;28;20168;-80
2023/01/02 02:35:10;;;;;;;4.33;2.00;;;13.10;99.90;;;;;;4994094;28;20171;-80
2023/01/02 02:37:43;;;;;;;5.00;2.27;;;13.00;99.90;;;;;;4976522;28;20199;-78
2023/01/02 02:40:31;;;;;;;3.50;2.40;;;13.00;99.90;;;;;;4976345;28;20197;-80
2023/01/02 02:43:15;;;;;;;2.90;1.80;;;13.00;99.90;;;;;;4975726;28;20199;-80
2023/01/02 02:45:40;;;;;;;2.60;1.73;;;12.90;99.90;;;;;;4976348;28;20673;-80
2023/01/02 02:48:38;;;;;;;5.43;1.90;;;12.80;99.90;;;;;;4993518;28;20254;-80
2023/01/02 02:51:10;;;;;;;5.10;2.10;;;12.70;99.90;;;;;;4975255;28;20259;-80
2023/01/02 02:53:46;;;;;;;3.87;1.80;;;12.70;99.90;;;;;;4975870;28;20172;-80
2023/01/02 02:56:15;;;;;;;4.90;2.00;;;12.70;99.90;;;;;;4976112;28;20171;-80
2023/01/02 02:58:42;;;;;;;4.23;1.70;;;12.70;99.90;;;;;;4976057;28;20183;-80
2023/01/02 03:01:16;;;;;;;3.97;2.00;;;12.80;99.90;;;;;;4993331;28;20283;-81
2023/01/02 03:03:42;;;;;;;5.70;2.20;;;12.80;99.90;;;;;;4993134;28;20195;-80
2023/01/02 03:06:17;;;;;;;3.70;2.07;;;12.80;99.90;;;;;;4993314;28;20171;-80
2023/01/02 03:08:49;;;;;;;4.33;1.90;;;12.80;99.90;;;;;;4976092;28;20171;-81
2023/01/02 03:11:15;;;;;;;3.33;1.93;;;12.80;99.90;;;;;;4976146;28;20187;-80
2023/01/02 03:14:08;;;;;;;4.13;1.90;;;12.80;99.90;;;;;;4992947;28;20172;-80
2023/01/02 03:16:41;;;;;;;3.43;1.70;;;12.80;99.90;;;;;;4993576;28;20213;-80
2023/01/02 03:19:13;;;;;;;6.03;1.90;;;12.80;99.90;;;;;;4976238;28;20180;-80
2023/01/02 03:21:51;;;;;;;3.00;1.77;;;12.90;99.90;;;;;;4976249;28;20282;-80
2023/01/02 03:24:20;;;;;;;3.30;1.93;;;12.90;99.90;;;;;;4975751;28;20252;-81
2023/01/02 03:26:49;;;;;;;4.27;2.00;;;12.90;99.90;;;;;;4993638;28;20182;-80
2023/01/02 03:29:19;;;;;;;3.77;1.90;;;12.80;99.90;;;;;;4978276;28;20241;-80
2023/01/02 03:31:50;;;;;;;4.23;1.73;;;12.70;99.90;;;;;;4980117;28;20289;-80
2023/01/02 03:34:27;;;;;;;4.60;1.93;;;12.70;99.90;;;;;;4979442;28;20178;-80
2023/01/02 03:36:59;;;;;;;3.30;1.90;;;12.60;99.90;;;;;;4997731;28;20177;-80
2023/01/02 03:39:32;;;;;;;3.07;1.70;;;12.60;99.90;;;;;;4980036;28;20163;-81
2023/01/02 03:42:03;;;;;;;5.43;2.10;;;12.50;99.90;;;;;;4997522;28;20168;-80
2023/01/02 03:44:39;;;;;;;3.60;2.00;;;12.60;99.90;;;;;;4996519;28;20164;-80
2023/01/02 03:47:18;;;;;;;3.93;2.00;;;12.60;99.90;;;;;;4997291;28;20630;-80
2023/01/02 03:49:47;;;;;;;3.93;2.00;;;12.70;99.90;;;;;;4979923;28;20187;-80
2023/01/02 03:52:13;;;;;;;4.87;2.07;;;12.60;99.90;;;;;;4996987;28;20187;-80
2023/01/02 03:54:39;;;;;;;4.23;1.90;;;12.70;99.90;;;;;;4997141;28;20188;-80
2023/01/02 03:57:07;;;;;;;3.13;1.97;;;12.80;99.90;;;;;;4979710;28;20230;-80
2023/01/02 03:59:59;;;;;;;4.67;1.97;;;12.70;99.90;;;;;;4997091;28;20686;-80
2023/01/02 04:02:33;;;;;;;5.83;2.10;;;12.70;99.90;;;;;;4996572;28;20346;-80
2023/01/02 04:05:17;;;;;;;3.97;1.80;;;12.70;99.90;;;;;;4997335;28;20179;-80
2023/01/02 04:08:04;;;;;;;4.90;2.10;;;12.70;99.90;;;;;;4979476;28;20306;-80
2023/01/02 04:10:33;;;;;;;2.70;1.80;;;12.60;99.90;;;;;;4996864;28;20192;-80
2023/01/02 04:13:05;;;;;;;3.20;2.00;;;12.60;99.90;;;;;;4978802;28;20180;-80
2023/01/02 04:15:32;;;;;;;4.60;1.83;;;12.60;99.90;;;;;;4996611;28;20207;-80
2023/01/02 04:18:06;;;;;;;3.10;1.90;;;12.60;99.90;;;;;;4979384;28;20326;-80
2023/01/02 04:20:36;;;;;;;2.97;1.63;;;12.60;99.90;;;;;;4996501;28;20222;-80
2023/01/02 04:23:08;;;;;;;3.20;1.90;;;12.50;99.90;;;;;;4978828;28;20290;-80
2023/01/02 04:25:43;;;;;;;2.67;1.90;;;12.60;99.90;;;;;;4979384;28;20175;-80
2023/01/02 04:28:26;;;;;;;3.60;1.83;;;12.50;99.90;;;;;;4997046;28;20541;-80
2023/01/02 04:31:02;;;;;;;5.27;2.27;;;12.50;99.90;;;;;;4979432;28;20281;-80
2023/01/02 04:33:30;;;;;;;4.87;1.90;;;12.50;99.90;;;;;;4978658;28;20199;-80
2023/01/02 04:35:56;;;;;;;4.03;2.07;;;12.50;99.90;;;;;;4996788;28;20180;-80
2023/01/02 04:38:21;;;;;;;4.20;1.90;;;12.60;99.90;;;;;;4977745;28;20186;-80
2023/01/02 04:40:48;;;;;;;3.07;1.97;;;12.60;99.90;;;;;;4996715;28;20592;-80
2023/01/02 04:43:19;;;;;;;4.80;2.20;;;12.70;99.90;;;;;;4978991;28;20203;-80
2023/01/02 04:45:49;;;;;;;3.10;1.93;;;12.70;99.90;;;;;;4996803;28;20262;-80
2023/01/02 04:48:15;;;;;;;3.53;1.60;;;12.70;99.90;;;;;;4996560;28;20172;-79
2023/01/02 04:50:41;;;;;;;3.53;1.93;;;12.70;99.90;;;;;;4995505;28;20205;-80
2023/01/02 04:53:09;;;;;;;4.07;1.90;;;12.70;99.90;;;;;;4977724;28;20270;-80
2023/01/02 04:55:35;;;;;;;2.57;1.73;;;12.60;99.90;;;;;;4995825;28;20183;-80
2023/01/02 04:58:01;;;;;;;3.73;1.60;;;12.50;99.90;;;;;;4978540;28;20183;-80
2023/01/02 05:00:26;;;;;;;5.50;2.27;;;12.50;99.90;;;;;;4995681;28;20682;-80
2023/01/02 05:02:52;;;;;;;4.17;1.97;;;12.60;99.90;;;;;;4977589;28;20309;-79
2023/01/02 05:05:17;;;;;;;3.87;2.00;;;12.60;99.90;;;;;;4978408;28;20176;-80
2023/01/02 05:07:43;;;;;;;4.20;1.83;;;12.70;99.90;;;;;;4977270;28;20276;-80
2023/01/02 05:10:09;;;;;;;6.00;2.20;;;12.70;99.90;;;;;;4995497;28;20210;-80
2023/01/02 05:12:36;;;;;;;3.70;1.80;;;12.90;99.90;;;;;;4977813;28;20179;-79
2023/01/02 05:15:02;;;;;;;3.37;2.00;;;12.90;99.90;;;;;;4995260;28;20187;-80
2023/01/02 05:17:32;;;;;;;5.13;1.80;;;12.90;99.90;;;;;;4995318;28;20172;-80
2023/01/02 05:19:58;;;;;;;3.10;1.73;;;12.90;99.90;;;;;;4995282;28;20678;-80
2023/01/02 05:25:08;;;;;;;4.00;1.73;;;12.80;99.90;;;;;;4995360;28;20163;-80
2023/01/02 05:27:33;;;;;;;2.67;1.83;;;12.80;99.90;;;;;;4995154;28;20550;-80
2023/01/02 05:29:59;;;;;;;3.53;1.80;;;12.90;99.90;;;;;;4995177;28;20689;-80
2023/01/02 05:32:26;;;;;;;4.20;1.70;;;12.90;99.90;;;;;;4977190;28;20219;-80
2023/01/02 05:34:52;;;;;;;4.10;2.20;;;12.90;99.90;;;;;;4977565;28;20187;-80
2023/01/02 05:37:17;;;;;;;3.97;2.03;;;12.90;99.90;;;;;;4977361;28;20553;-79
2023/01/02 05:39:43;;;;;;;6.47;1.97;;;12.90;99.90;;;;;;4977240;28;20590;-80
2023/01/02 05:42:08;;;;;;;6.67;1.90;;;12.90;99.90;;;;;;4994887;28;20550;-80
2023/01/02 05:44:34;;;;;;;4.10;1.87;;;12.90;99.90;;;;;;4976915;28;20584;-80
2023/01/02 05:46:59;;;;;;;3.83;2.10;;;12.90;99.90;;;;;;4977576;28;20218;-80
2023/01/02 05:49:25;;;;;;;5.43;1.80;;;12.90;99.90;;;;;;4995035;28;20281;-80
2023/01/02 05:51:50;;;;;;;5.50;1.93;;;12.90;99.90;;;;;;4994460;28;20187;-80
2023/01/02 05:54:16;;;;;;;3.97;2.20;;;12.80;99.90;;;;;;4994052;28;20179;-80
2023/01/02 05:56:41;;;;;;;3.70;1.97;;;12.80;99.90;;;;;;4994800;28;20175;-80
2023/01/02 05:59:07;;;;;;;3.67;1.90;;;12.70;99.90;;;;;;4994915;28;20181;-80
2023/01/02 06:01:33;;;;;;;5.27;1.90;;;12.60;99.90;;;;;;5007526;28;20720;-81
2023/01/02 06:03:59;;;;;;;4.43;1.93;;;12.60;99.90;;;;;;4996313;28;20276;-80
2023/01/02 06:06:33;;;;;;;4.40;1.90;;;12.60;99.90;;;;;;4996600;28;20189;-79
2023/01/02 06:08:59;;;;;;;3.27;1.80;;;12.60;99.90;;;;;;4997781;28;20182;-80
2023/01/02 06:11:26;;;;;;;4.00;1.97;;;12.50;99.90;;;;;;5013917;28;20202;-78
2023/01/02 06:13:52;;;;;;;5.07;1.90;;;12.50;99.90;;;;;;5013704;28;20294;-81
2023/01/02 06:16:17;;;;;;;3.40;1.90;;;12.50;99.90;;;;;;4996424;28;20274;-81
2023/01/02 06:18:43;;;;;;;4.40;2.07;;;12.70;99.90;;;;;;5013684;28;20669;-81
2023/01/02 06:21:11;;;;;;;6.63;2.20;;;12.60;99.90;;;;;;5032528;22;20230;-78
2023/01/02 06:23:37;;;;;;;2.20;1.73;;;12.60;99.90;;;;;;5014368;28;20197;-78
2023/01/02 06:26:08;;;;;;;2.97;1.93;;;12.60;99.90;;;;;;5032576;28;20181;-78
2023/01/02 06:28:34;;;;;;;3.50;2.00;;;12.70;99.90;;;;;;5032757;28;20173;-77
2023/01/02 06:31:06;;;;;;;7.00;2.00;;;12.70;99.90;;;;;;5032413;28;20186;-77
2023/01/02 06:33:32;;;;;;;5.57;2.10;;;12.70;99.90;;;;;;5031913;28;20184;-78
2023/01/02 06:36:17;;;;;;;4.30;2.07;;;12.80;99.90;;;;;;5014998;28;20174;-78
2023/01/02 06:38:44;;;;;;;3.63;1.80;;;12.70;99.90;;;;;;5032541;28;20193;-77
2023/01/02 06:41:10;;;;;;;4.37;2.13;;;12.60;99.90;;;;;;5032659;28;20233;-77
2023/01/02 06:43:44;;;;;;;3.90;1.77;;;12.60;99.90;;;;;;5014491;28;20285;-77
2023/01/02 06:46:11;;;;;;;3.17;1.90;;;12.60;99.90;;;;;;5015057;28;20589;-78
2023/01/02 06:48:36;;;;;;;4.17;2.23;;;12.70;99.90;;;;;;5032585;28;20261;-76
2023/01/02 06:51:06;;;;;;;5.20;2.10;;;12.60;99.90;;;;;;5015025;28;20198;-76
2023/01/02 06:53:34;;;;;;;4.90;1.87;;;12.60;99.90;;;;;;5032116;28;20181;-76
2023/01/02 06:55:59;;;;;;;5.47;2.30;;;12.60;99.90;;;;;;5032728;28;20178;-76
2023/01/02 06:58:28;;;;;;;3.73;1.90;;;12.60;99.90;;;;;;5032868;28;20181;-76
2023/01/02 07:00:54;;;;;;;3.07;1.70;;;12.60;99.90;;;;;;5015057;28;20603;-76
2023/01/02 07:03:19;;;;;;;5.30;2.23;;;12.70;99.90;;;;;;5031319;28;20721;-76
2023/01/02 07:05:46;;;;;;;4.33;1.60;;;12.60;99.90;;;;;;5015081;28;20288;-75
2023/01/02 07:08:12;;;;;;;3.57;1.90;;;12.60;99.90;;;;;;5032734;28;20212;-76
2023/01/02 07:10:38;;;;;;;3.23;1.80;;;12.70;99.90;;;;;;5032559;28;20264;-77
2023/01/02 07:13:04;;;;;;;2.40;1.67;;;12.70;99.90;;;;;;5032004;28;20166;-77
2023/01/02 07:15:30;;;;;;;4.70;1.83;;;12.70;99.90;;;;;;5032686;28;20206;-76
2023/01/02 07:17:56;;;;;;;3.83;1.90;;;12.60;99.90;;;;;;5032640;28;20197;-78
2023/01/02 07:20:22;;;;;;;3.70;2.03;;;12.70;99.90;;;;;;5032315;28;20237;-76
2023/01/02 07:22:52;;;;;;;6.13;2.10;;;12.70;99.90;;;;;;5014169;28;20255;-76
2023/01/02 07:25:19;;;;;;;4.77;1.80;;;12.70;99.90;;;;;;5032232;28;20174;-77
2023/01/02 07:27:44;;;;;;;4.17;2.27;;;12.70;99.90;;;;;;5014621;28;20253;-77
2023/01/02 07:30:11;;;;;;;4.37;1.70;;;12.70;99.90;;;;;;5014842;28;20198;-76
2023/01/02 07:32:36;;;;;;;6.57;2.10;;;12.70;99.90;;;;;;5014160;28;20262;-76
2023/01/02 07:35:02;;;;;;;2.10;1.67;;;12.80;99.90;;;;;;5014867;28;20178;-77
2023/01/02 07:37:28;;;;;;;3.80;2.00;;;12.70;99.90;;;;;;5014583;28;20179;-77
2023/01/02 07:39:53;;;;;;;5.20;1.80;;;12.70;99.90;;;;;;5014645;28;20182;-77
2023/01/02 07:42:19;;;;;;;6.13;2.00;;;12.60;99.90;;;;;;5013902;28;20237;-77
2023/01/02 07:44:44;;;;;;;5.60;1.90;;;12.70;99.90;;;;;;5014566;28;20224;-77
2023/01/02 07:47:10;;;;;;;3.50;1.93;;;12.70;99.90;;;;;;5014569;28;20178;-77
2023/01/02 07:49:35;;;;;;;4.40;2.00;;;12.60;99.90;;;;;;5014758;28;20178;-76
2023/01/02 07:52:01;;;;;;;4.07;1.93;;;12.60;99.90;;;;;;5014815;28;20273;-78
2023/01/02 07:54:26;;;;;;;7.30;2.20;;;12.60;99.90;;;;;;5013949;28;20211;-79
2023/01/02 07:56:52;;;;;;;5.43;1.93;;;12.70;99.90;;;;;;5014537;28;20186;-78
2023/01/02 07:59:18;;;;;;;6.40;1.87;;;12.80;99.90;;;;;;5032303;28;20170;-78
2023/01/02 08:01:43;;;;;;;5.07;2.00;;;12.80;99.90;;;;;;5014205;28;20282;-77
2023/01/02 08:04:09;;;;;;;7.27;1.93;;;12.80;99.90;;;;;;5013790;28;20622;-78
2023/01/02 08:06:37;;;;;;;4.67;1.60;;;12.80;99.90;;;;;;5014309;28;20178;-78
2023/01/02 08:09:03;;;;;;;2.53;1.90;;;12.80;99.90;;;;;;5014516;28;20610;-78
2023/01/02 08:11:28;;;;;;;4.83;2.10;;;12.90;99.90;;;;;;5015167;28;20226;-78
2023/01/02 08:13:54;;;;;;;3.27;2.07;;;12.90;99.90;;;;;;5014361;28;20181;-78
2023/01/02 08:16:21;;;;;;;4.03;1.83;;;12.90;99.90;;;;;;5018085;28;20205;-78
2023/01/02 08:18:46;;;;;;;3.97;1.67;;;13.00;99.90;;;;;;5036035;28;20183;-77
2023/01/02 08:21:12;;;;;;;4.77;2.00;;;13.00;99.90;;;;;;5017877;28;20268;-77
2023/01/02 08:23:38;;;;;;;4.67;2.00;;;13.00;99.90;;;;;;5017337;28;20205;-78
2023/01/02 08:26:06;;;;;;;6.43;2.30;;;12.90;99.90;;;;;;5018095;28;20545;-78
2023/01/02 08:28:32;;;;;;;4.13;2.17;;;12.90;99.90;;;;;;5035811;28;20178;-78
2023/01/02 08:30:59;;;;;;;7.43;1.97;;;12.90;99.90;;;;;;5017837;28;20199;-78
2023/01/02 08:33:24;;;;;;;4.63;1.90;;;13.00;99.90;;;;;;5017325;28;20182;-78
2023/01/02 08:35:50;;;;;;;5.67;2.07;;;13.00;99.90;;;;;;5035583;28;20181;-78
2023/01/02 08:38:16;;;;;;;7.60;2.10;;;13.10;99.90;;;;;;5035042;28;20204;-78
2023/01/02 08:40:41;;;;;;;3.17;2.03;;;13.20;99.90;;;;;;5034908;28;20200;-78
2023/01/02 08:43:07;;;;;;;5.23;1.87;;;13.20;99.90;;;;;;5017031;28;20260;-78
2023/01/02 08:45:33;;;;;;;5.47;1.80;;;13.30;99.90;;;;;;5035319;28;20265;-78
2023/01/02 08:47:59;;;;;;;2.77;1.80;;;13.30;99.90;;;;;;5034906;28;20257;-78
2023/01/02 08:50:24;;;;;;;6.23;1.90;;;13.30;99.90;;;;;;5017183;28;20190;-78
2023/01/02 08:52:50;;;;;;;6.03;1.93;;;13.20;99.90;;;;;;5016883;28;20197;-78
2023/01/02 08:55:16;;;;;;;5.53;2.43;;;13.30;99.90;;;;;;5017197;28;20687;-77
2023/01/02 08:57:41;;;;;;;10.00;2.37;;;13.20;99.90;;;;;;5034366;28;20190;-78
2023/01/02 09:00:08;;;;;;;4.50;1.80;;;13.10;99.90;;;;;;5034693;28;20217;-78
2023/01/02 09:02:33;;;;;;;4.37;1.83;;;13.10;99.90;;;;;;5034466;28;20205;-78
2023/01/02 09:04:59;;;;;;;6.43;2.13;;;13.10;99.90;;;;;;5016977;28;20174;-85
2023/01/02 09:07:24;;;;;;;5.47;2.27;;;13.20;99.90;;;;;;5017127;28;20597;-79
2023/01/02 09:09:50;;;;;;;4.73;2.20;;;13.10;99.90;;;;;;5034699;28;20246;-77
2023/01/02 09:12:16;;;;;;;3.73;2.00;;;13.00;99.90;;;;;;5016778;28;20584;-78
2023/01/02 09:14:41;;;;;;;8.50;2.17;;;13.00;99.90;;;;;;5016929;28;20166;-79
2023/01/02 09:17:07;;;;;;;10.10;2.23;;;12.90;99.90;;;;;;5034596;28;20178;-78
2023/01/02 09:19:33;;;;;;;6.77;2.50;;;12.90;99.90;;;;;;5034806;28;20265;-78
2023/01/02 09:22:00;;;;;;;7.17;2.30;;;12.90;99.90;;;;;;5015480;28;20292;-78
2023/01/02 09:24:26;;;;;;;7.10;2.30;;;12.90;99.90;;;;;;5015306;28;20224;-79
2023/01/02 09:26:52;;;;;;;6.10;2.40;;;13.00;99.90;;;;;;5014941;28;20186;-78
2023/01/02 09:29:18;;;;;;;4.77;2.10;;;13.00;99.90;;;;;;5016139;28;20174;-78
2023/01/02 09:31:44;;;;;;;8.23;2.53;;;13.00;99.90;;;;;;5032234;28;20214;-79
2023/01/02 09:34:10;;;;;;;6.77;2.10;;;12.90;99.90;;;;;;5032829;28;20284;-79
2023/01/02 09:36:36;;;;;;;7.47;2.30;;;12.90;99.90;;;;;;5016106;28;20272;-80
2023/01/02 09:39:02;;;;;;;8.67;2.10;;;12.90;99.90;;;;;;5033798;28;20177;-78
2023/01/02 09:41:51;;;;;;;6.00;1.90;;;12.90;99.90;;;;;;5033529;28;20275;-78
2023/01/02 09:44:22;;;;;;;4.93;1.97;;;12.90;99.90;;;;;;5014846;28;20264;-79
2023/01/02 09:47:29;;;;;;;5.93;2.37;;;12.90;99.90;;;;;;5033553;28;20170;-79
2023/01/02 09:50:00;;;;;;;5.27;2.50;;;12.90;99.90;;;;;;4972353;28;20199;-79
2023/01/02 09:52:32;;;;;;;7.20;2.37;;;13.00;99.90;;;;;;4955607;28;20172;-79
2023/01/02 09:54:58;;;;;;;8.80;2.27;;;13.00;99.90;;;;;;4989978;28;20186;-79
2023/01/02 09:57:27;;;;;;;6.63;1.90;;;13.00;99.90;;;;;;5016240;28;20274;-79
2023/01/02 10:00:17;;;;;;;6.67;2.20;;;12.90;99.90;;;;;;5015519;28;20174;-78
2023/01/02 10:02:48;;;;;;;5.87;2.07;;;12.90;99.90;;;;;;5014487;28;20719;-79
2023/01/02 10:05:39;;;;;;;6.67;2.20;;;12.80;99.90;;;;;;5032961;28;20541;-78
2023/01/02 10:08:26;;;;;;;5.83;2.30;;;12.90;99.90;;;;;;5033587;28;20618;-79
2023/01/02 10:11:08;;;;;;;7.13;1.90;;;12.90;99.90;;;;;;5015197;28;20268;-78
2023/01/02 10:13:52;;;;;;;6.40;2.10;;;12.90;99.90;;;;;;5014660;28;20174;-78
2023/01/02 10:16:22;;;;;;;6.90;2.10;;;12.90;99.90;;;;;;5014780;28;20173;-78
2023/01/02 10:18:51;;;;;;;5.70;2.00;;;12.90;99.90;;;;;;5032572;28;20167;-79
2023/01/02 10:21:45;;;;;;;7.60;2.33;;;12.90;99.90;;;;;;4995781;28;1073236;-79
2023/01/02 10:24:14;;;;;;;7.13;2.00;;;13.00;99.90;;;;;;5030526;28;20202;-78
2023/01/02 10:26:47;;;;;;;8.17;2.10;;;13.00;99.90;;;;;;5015926;28;20182;-79
2023/01/02 10:29:26;;;;;;;6.37;2.10;;;13.10;99.90;;;;;;5033469;28;20158;-79
2023/01/02 10:31:59;;;;;;;6.60;2.30;;;13.20;99.90;;;;;;5033319;28;20190;-78
2023/01/02 10:34:41;;;;;;;4.77;2.00;;;13.20;99.90;;;;;;5032954;28;20166;-78
2023/01/02 10:37:15;;;;;;;5.53;1.70;;;13.20;99.90;;;;;;5015271;28;20171;-78
2023/01/02 10:39:43;;;;;;;7.60;2.03;;;13.20;99.90;;;;;;5015337;28;20228;-79
2023/01/02 10:42:13;;;;;;;4.27;2.03;;;13.20;99.90;;;;;;5032930;28;20178;-76
2023/01/02 10:44:40;;;;;;;7.50;2.10;;;13.30;99.90;;;;;;5016068;28;20174;-77
2023/01/02 10:47:33;;;;;;;6.40;2.37;;;13.40;99.90;;;;;;5033498;28;20174;-77
2023/01/02 10:50:00;;;;;;;5.37;2.03;;;13.40;99.90;;;;;;5015805;28;20231;-77
2023/01/02 10:52:39;;;;;;;5.20;2.03;;;13.40;99.90;;;;;;5015232;28;20200;-78
2023/01/02 10:55:05;;;;;;;8.33;2.37;;;13.50;99.90;;;;;;5015774;28;20201;-77
2023/01/02 10:57:41;;;;;;;7.70;2.27;;;13.40;99.90;;;;;;5033667;28;20174;-77
2023/01/02 11:00:24;;;;;;;5.17;2.20;;;13.40;99.90;;;;;;5016017;28;20202;-77
2023/01/02 11:02:53;;;;;;;4.80;1.90;;;13.40;99.90;;;;;;5015572;28;20202;-77
2023/01/02 11:05:25;;;;;;;7.63;2.10;;;13.40;99.90;;;;;;5033324;28;20174;-77
2023/01/02 11:07:52;;;;;;;9.03;2.40;;;13.50;99.90;;;;;;5015409;28;20174;-77
2023/01/02 11:10:36;;;;;;;6.83;2.70;;;13.40;99.90;;;;;;5015979;28;20221;-76
2023/01/02 11:13:07;;;;;;;20.00;7.97;;;13.40;99.90;;;;;;5014874;28;20171;-80
2023/01/02 11:15:35;;;;;;;5.80;2.30;;;13.50;99.90;;;;;;5033704;28;20166;-77
2023/01/02 11:18:09;;;;;;;7.80;2.40;;;13.50;99.90;;;;;;5015509;28;20182;-80
2023/01/02 11:20:36;;;;;;;7.90;2.40;;;13.50;99.90;;;;;;5033002;28;20245;-81
2023/01/02 11:23:04;;;;;;;4.33;2.00;;;13.50;99.90;;;;;;5032704;28;20196;-81
2023/01/02 11:25:40;;;;;;;5.20;2.03;;;13.40;99.90;;;;;;5033183;28;20624;-80
2023/01/02 11:28:18;;;;;;;7.73;2.10;;;13.30;99.90;;;;;;5015317;28;20586;-80
2023/01/02 11:30:47;;;;;;;5.87;2.03;;;13.20;99.90;;;;;;5015921;28;20194;-80
2023/01/02 11:33:12;;;;;;;7.53;2.10;;;13.20;99.90;;;;;;5015361;28;20242;-80
2023/01/02 11:35:44;;;;;;;7.80;2.27;;;13.10;99.90;;;;;;5015246;28;20281;-80
2023/01/02 11:38:16;;;;;;;6.03;2.03;;;13.00;99.90;;;;;;5015864;28;20193;-81
2023/01/02 11:40:57;;;;;;;7.50;2.07;;;13.00;99.90;;;;;;5015219;28;20202;-80
2023/01/02 11:43:47;;;;;;;7.10;2.80;;;12.90;99.90;;;;;;5015239;28;20274;-80
2023/01/02 11:46:32;;;;;;;6.13;2.27;;;12.90;99.90;;;;;;5033151;28;20185;-80
2023/01/02 11:49:05;;;;;;;6.10;2.37;;;13.10;99.90;;;;;;5033249;28;20170;-81
2023/01/02 11:51:34;;;;;;;6.53;2.10;;;13.00;99.90;;;;;;5037149;28;20269;-80
2023/01/02 11:54:03;;;;;;;6.90;2.77;;;12.90;99.90;;;;;;5037509;28;20541;-81
2023/01/02 11:56:38;;;;;;;6.00;2.33;;;12.80;99.90;;;;;;5019879;28;20181;-82
2023/01/02 11:59:13;;;;;;;6.03;2.30;;;12.80;99.90;;;;;;5036948;28;20646;-76
2023/01/02 12:01:44;;;;;;;7.47;2.40;;;12.80;99.90;;;;;;5035862;28;20295;-74
2023/01/02 12:04:11;;;;;;;4.97;2.60;;;12.70;99.90;;;;;;5017365;28;20202;-75
2023/01/02 12:07:23;;;;;;;5.83;2.63;;;12.70;99.90;;;;;;5035659;28;20186;-74
2023/01/02 12:10:17;;;;;;;5.93;2.70;;;12.60;99.90;;;;;;5008277;28;20276;-74
2023/01/02 12:12:48;;;;;;;5.23;2.37;;;12.60;99.90;;;;;;5017632;28;20184;-75
2023/01/02 12:15:35;;;;;;;7.17;2.50;;;12.50;99.90;;;;;;5017715;28;20189;-75
2023/01/02 12:18:04;;;;;;;6.23;2.40;;;12.50;99.90;;;;;;5035891;28;20166;-76
2023/01/02 12:21:07;;;;;;;8.67;2.30;;;12.40;99.90;;;;;;5044380;22;20207;-81
2023/01/02 12:23:49;;;;;;;8.47;2.60;;;12.30;99.90;;;;;;4955960;29;20847;-81
2023/01/02 12:26:27;;;;;;;5.63;2.03;;;12.30;99.90;;;;;;4956392;29;20169;-79
2023/01/02 12:29:37;;;;;;;6.57;2.67;;;12.20;99.90;;;;;;5011257;28;20272;-81
2023/01/02 12:32:17;;;;;;;7.80;2.70;;;12.10;99.90;;;;;;5011669;28;20206;-81
2023/01/02 12:35:02;;;;;;;3.93;2.77;;;12.10;99.90;;;;;;5036710;28;20167;-81
2023/01/02 12:37:45;;;;;;;4.50;2.70;;;12.00;99.90;;;;;;5018855;28;20173;-81
2023/01/02 12:40:38;;;;;;;10.57;2.73;;;12.00;99.90;;;;;;5037213;28;20170;-81
2023/01/02 12:43:15;;;;;;;6.83;2.90;;;11.90;99.90;;;;;;5019210;28;20244;-81
2023/01/02 12:46:13;;;;;;;9.60;2.73;;;11.90;99.90;;;;;;5018974;28;20177;-81
2023/01/02 12:48:44;;;;;;;3.87;2.50;;;11.80;99.90;;;;;;5015074;28;20189;-82
2023/01/02 12:51:32;;;;;;;6.20;2.60;;;11.70;99.90;;;;;;5018598;28;20190;-83
2023/01/02 12:53:57;;;;;;;6.80;2.87;;;11.60;99.90;;;;;;5018502;28;20178;-81
2023/01/02 12:56:31;;;;;;;4.63;2.40;;;11.60;99.90;;;;;;5036341;28;20222;-81
2023/01/02 12:59:03;;;;;;;5.63;2.33;;;11.50;99.90;;;;;;5036643;28;20170;-81
2023/01/02 13:01:34;;;;;;;7.53;2.97;;;11.40;99.90;;;;;;5035427;28;20198;-81
2023/01/02 13:04:09;;;;;;;9.23;3.03;;;11.40;99.90;;;;;;5035798;28;20198;-81
2023/01/02 13:07:08;;;;;;;5.37;2.90;;;11.40;99.90;;;;;;5036782;28;20249;-81